createdAt,value
2023-10-31T00:00:27.662Z,3.13
2023-10-31T00:03:13.331Z,2.08
2023-10-31T00:05:59.226Z,2.08
2023-10-31T00:08:44.676Z,2.47
2023-10-31T00:11:30.373Z,1.85
2023-10-31T00:14:29.600Z,2.15
2023-10-31T00:17:17.183Z,3.95
2023-10-31T00:20:02.764Z,3.67
2023-10-31T00:22:48.468Z,3.30
2023-10-31T00:25:34.007Z,4.95
2023-10-31T00:28:19.365Z,4.25
2023-10-31T00:31:05.343Z,3.03
2023-10-31T00:33:50.684Z,3.03
2023-10-31T00:36:36.700Z,2.55
2023-10-31T00:39:22.317Z,1.42
2023-10-31T00:42:07.989Z,6.25
2023-10-31T00:44:53.453Z,3.15
2023-10-31T00:47:39.067Z,1.88
2023-10-31T00:50:24.839Z,2.47
2023-10-31T00:53:10.460Z,1.75
2023-10-31T00:55:55.878Z,1.35
2023-10-31T00:58:42.020Z,1.98
2023-10-31T01:01:27.507Z,2.60
2023-10-31T01:04:13.060Z,1.60
2023-10-31T01:06:58.776Z,2.70
2023-10-31T01:09:44.776Z,5.00
2023-10-31T01:12:31.370Z,2.58
2023-10-31T01:15:17.005Z,5.78
2023-10-31T01:18:02.528Z,3.08
2023-10-31T01:20:48.102Z,4.10
2023-10-31T01:23:33.999Z,3.60
2023-10-31T01:26:19.440Z,2.55
2023-10-31T01:29:05.197Z,3.33
2023-10-31T01:31:59.188Z,3.35
2023-10-31T01:34:47.027Z,4.60
2023-10-31T01:37:32.729Z,3.35
2023-10-31T01:40:18.210Z,4.80
2023-10-31T01:43:03.702Z,3.50
2023-10-31T01:45:49.095Z,4.75
2023-10-31T01:48:35.344Z,2.65
2023-10-31T01:51:21.273Z,3.83
2023-10-31T01:54:08.210Z,3.72
2023-10-31T01:56:59.345Z,4.82
2023-10-31T01:59:45.442Z,5.93
2023-10-31T02:02:35.750Z,4.40
2023-10-31T02:05:21.408Z,4.43
2023-10-31T02:08:07.360Z,5.60
2023-10-31T02:10:53.231Z,4.82
2023-10-31T02:13:39.231Z,4.45
2023-10-31T02:16:25.139Z,4.70
2023-10-31T02:19:13.350Z,4.40
2023-10-31T02:21:59.345Z,4.40
2023-10-31T02:24:44.918Z,3.47
2023-10-31T02:27:30.264Z,3.70
2023-10-31T02:30:15.960Z,4.65
2023-10-31T02:33:03.570Z,3.80
2023-10-31T02:35:49.304Z,7.05
2023-10-31T02:38:34.799Z,4.93
2023-10-31T02:41:20.358Z,4.90
2023-10-31T02:44:06.144Z,5.78
2023-10-31T02:46:51.935Z,5.70
2023-10-31T02:49:37.748Z,4.35
2023-10-31T02:52:23.717Z,4.22
2023-10-31T02:55:09.764Z,5.05
2023-10-31T02:57:55.379Z,5.63
2023-10-31T03:00:43.926Z,6.18
2023-10-31T03:03:32.509Z,3.35
2023-10-31T03:06:22.661Z,3.70
2023-10-31T03:09:13.585Z,4.75
2023-10-31T03:12:03.785Z,2.65
2023-10-31T03:14:53.663Z,5.35
2023-10-31T03:17:43.330Z,5.53
2023-10-31T03:20:33.416Z,3.75
2023-10-31T03:23:22.744Z,3.22
2023-10-31T03:26:15.506Z,6.93
2023-10-31T03:29:04.511Z,3.55
2023-10-31T03:31:53.597Z,5.43
2023-10-31T03:34:42.889Z,3.70
2023-10-31T03:37:32.741Z,5.78
2023-10-31T03:40:22.512Z,4.97
2023-10-31T03:43:07.878Z,5.18
2023-10-31T03:45:57.392Z,5.85
2023-10-31T03:48:43.422Z,2.30
2023-10-31T03:51:32.923Z,3.35
2023-10-31T03:54:18.873Z,3.90
2023-10-31T03:57:08.205Z,3.28
2023-10-31T03:59:53.803Z,4.28
2023-10-31T04:02:43.549Z,3.90
2023-10-31T04:05:29.063Z,4.65
2023-10-31T04:08:18.561Z,3.05
2023-10-31T04:11:04.636Z,5.10
2023-10-31T04:13:54.769Z,2.87
2023-10-31T04:16:42.018Z,3.05
2023-10-31T04:19:30.664Z,4.95
2023-10-31T04:22:16.416Z,1.70
2023-10-31T04:25:06.729Z,3.88
2023-10-31T04:27:52.158Z,2.70
2023-10-31T04:30:41.992Z,4.13
2023-10-31T04:33:27.555Z,5.82
2023-10-31T04:36:15.976Z,2.28
2023-10-31T04:39:01.517Z,2.63
2023-10-31T04:41:51.258Z,3.22
2023-10-31T04:44:36.614Z,2.25
2023-10-31T04:47:26.484Z,3.80
2023-10-31T04:50:12.565Z,3.30
2023-10-31T04:53:01.695Z,2.72
2023-10-31T04:55:47.067Z,4.57
2023-10-31T04:58:37.174Z,3.88
2023-10-31T05:01:23.727Z,3.70
2023-10-31T05:04:13.203Z,3.40
2023-10-31T05:06:59.234Z,2.53
2023-10-31T05:09:47.190Z,4.82
2023-10-31T05:12:33.060Z,3.20
2023-10-31T05:15:18.999Z,2.97
2023-10-31T05:18:04.937Z,2.50
2023-10-31T05:20:50.812Z,3.00
2023-10-31T05:23:36.152Z,2.83
2023-10-31T05:26:21.610Z,6.00
2023-10-31T05:29:07.032Z,3.20
2023-10-31T05:31:52.645Z,6.20
2023-10-31T05:34:38.210Z,7.15
2023-10-31T05:37:23.601Z,3.97
2023-10-31T05:40:10.465Z,3.53
2023-10-31T05:42:56.234Z,7.80
2023-10-31T05:45:43.733Z,2.63
2023-10-31T05:48:33.180Z,3.97
2023-10-31T05:51:20.321Z,4.65
2023-10-31T05:54:08.926Z,4.70
2023-10-31T05:56:54.294Z,3.50
2023-10-31T05:59:39.946Z,2.30
2023-10-31T06:02:25.978Z,6.03
2023-10-31T06:05:11.975Z,2.70
2023-10-31T06:07:57.865Z,4.85
2023-10-31T06:10:43.467Z,2.85
2023-10-31T06:13:29.167Z,2.05
2023-10-31T06:16:14.931Z,2.38
2023-10-31T06:19:00.731Z,3.10
2023-10-31T06:21:46.376Z,6.70
2023-10-31T06:24:31.821Z,2.53
2023-10-31T06:27:17.483Z,3.80
2023-10-31T06:30:12.014Z,3.72
2023-10-31T06:33:06.571Z,2.35
2023-10-31T06:35:52.100Z,2.70
2023-10-31T06:38:37.923Z,4.47
2023-10-31T06:41:25.318Z,3.83
2023-10-31T06:44:11.277Z,2.03
2023-10-31T06:46:56.711Z,3.25
2023-10-31T06:49:42.303Z,2.22
2023-10-31T06:52:27.705Z,3.88
2023-10-31T06:55:13.456Z,6.80
2023-10-31T06:57:59.168Z,2.72
2023-10-31T07:00:44.732Z,7.03
2023-10-31T07:03:31.295Z,3.78
2023-10-31T07:06:17.538Z,3.20
2023-10-31T07:09:03.121Z,2.13
2023-10-31T07:11:48.913Z,7.45
2023-10-31T07:14:34.264Z,11.32
2023-10-31T07:17:19.788Z,6.35
2023-10-31T07:20:07.603Z,10.73
2023-10-31T07:22:53.461Z,11.40
2023-10-31T07:25:39.012Z,8.05
2023-10-31T07:28:24.878Z,11.70
2023-10-31T07:31:10.322Z,8.10
2023-10-31T07:33:55.815Z,10.38
2023-10-31T07:36:41.190Z,8.25
2023-10-31T07:39:27.088Z,9.90
2023-10-31T07:42:12.554Z,6.65
2023-10-31T07:44:58.126Z,17.08
2023-10-31T07:47:43.674Z,9.00
2023-10-31T07:50:29.342Z,6.85
2023-10-31T07:53:15.312Z,6.10
2023-10-31T07:56:00.756Z,6.70
2023-10-31T07:58:46.368Z,4.18
2023-10-31T08:01:32.365Z,5.35
2023-10-31T08:04:18.263Z,7.18
2023-10-31T08:07:03.922Z,12.27
2023-10-31T08:09:49.618Z,8.07
2023-10-31T08:12:35.042Z,9.02
2023-10-31T08:15:20.558Z,14.05
2023-10-31T08:18:06.358Z,6.50
2023-10-31T08:20:52.275Z,9.00
2023-10-31T08:23:38.239Z,4.50
2023-10-31T08:26:23.853Z,8.43
2023-10-31T08:29:09.383Z,6.55
2023-10-31T08:31:54.825Z,5.03
2023-10-31T08:34:40.445Z,3.92
2023-10-31T08:37:26.073Z,5.80
2023-10-31T08:40:12.321Z,3.47
2023-10-31T08:42:58.008Z,4.03
2023-10-31T08:45:43.715Z,5.10
2023-10-31T08:48:29.215Z,4.97
2023-10-31T08:51:15.160Z,5.35
2023-10-31T08:54:00.951Z,5.50
2023-10-31T08:56:46.527Z,3.72
2023-10-31T08:59:32.007Z,5.05
2023-10-31T09:02:18.140Z,6.05
2023-10-31T09:05:04.830Z,6.22
2023-10-31T09:07:50.581Z,5.25
2023-10-31T09:10:38.230Z,2.30
2023-10-31T09:13:24.284Z,9.65
2023-10-31T09:16:10.102Z,7.15
2023-10-31T09:18:55.888Z,4.15
2023-10-31T09:21:41.642Z,3.85
2023-10-31T09:24:27.284Z,3.88
2023-10-31T09:27:13.049Z,3.60
2023-10-31T09:29:58.598Z,6.55
2023-10-31T09:32:44.190Z,2.50
2023-10-31T09:35:30.110Z,2.45
2023-10-31T09:38:16.118Z,2.30
2023-10-31T09:41:01.675Z,4.53
2023-10-31T09:43:47.082Z,4.43
2023-10-31T09:46:32.621Z,3.13
2023-10-31T09:49:18.930Z,4.22
2023-10-31T09:52:05.717Z,2.95
2023-10-31T09:54:53.590Z,4.10
2023-10-31T09:57:39.458Z,3.78
2023-10-31T10:00:25.360Z,3.25
2023-10-31T10:03:11.360Z,3.95
2023-10-31T10:05:58.404Z,2.38
2023-10-31T10:08:44.149Z,3.30
2023-10-31T10:11:29.920Z,1.95
2023-10-31T10:14:15.632Z,3.15
2023-10-31T10:17:01.560Z,3.08
2023-10-31T10:19:47.436Z,1.92
2023-10-31T10:22:32.947Z,1.63
2023-10-31T10:25:20.028Z,1.50
2023-10-31T10:28:05.638Z,1.50
2023-10-31T10:30:52.289Z,1.23
2023-10-31T10:33:37.631Z,2.15
2023-10-31T10:36:27.062Z,5.70
2023-10-31T10:39:12.854Z,1.65
2023-10-31T10:42:02.814Z,2.33
2023-10-31T10:44:51.980Z,2.22
2023-10-31T10:47:40.933Z,1.27
2023-10-31T10:50:32.099Z,1.45
2023-10-31T10:53:25.989Z,2.35
2023-10-31T10:56:26.868Z,3.38
2023-10-31T10:59:16.021Z,3.25
2023-10-31T11:02:05.065Z,1.58
2023-10-31T11:04:50.744Z,1.92
2023-10-31T11:07:41.316Z,3.58
2023-10-31T11:10:28.869Z,2.28
2023-10-31T11:13:15.241Z,2.30
2023-10-31T11:16:12.667Z,1.65
2023-10-31T11:18:59.079Z,2.30
2023-10-31T11:22:00.605Z,1.48
2023-10-31T11:24:46.317Z,1.88
2023-10-31T11:27:36.240Z,1.80
2023-10-31T11:30:30.269Z,2.67
2023-10-31T11:33:21.368Z,3.45
2023-10-31T11:36:07.730Z,1.65
2023-10-31T11:39:13.344Z,1.58
2023-10-31T11:42:01.449Z,1.98
2023-10-31T11:44:56.876Z,2.80
2023-10-31T11:47:52.741Z,1.85
2023-10-31T11:50:39.775Z,1.60
2023-10-31T11:53:25.308Z,2.58
2023-10-31T11:56:12.338Z,4.13
2023-10-31T11:59:06.197Z,1.33
2023-10-31T12:01:51.551Z,1.35
2023-10-31T12:04:37.042Z,3.80
2023-10-31T12:07:22.516Z,3.75
2023-10-31T12:10:09.510Z,2.35
2023-10-31T12:12:55.127Z,1.55
2023-10-31T12:15:54.013Z,2.10
2023-10-31T12:18:39.895Z,1.73
2023-10-31T12:21:46.694Z,2.28
2023-10-31T12:24:32.424Z,2.10
2023-10-31T12:27:17.963Z,1.63
2023-10-31T12:30:03.846Z,1.35
2023-10-31T12:32:57.705Z,2.80
2023-10-31T12:35:44.916Z,2.08
2023-10-31T12:38:31.170Z,4.97
2023-10-31T12:41:18.517Z,1.48
2023-10-31T12:44:06.271Z,2.13
2023-10-31T12:46:52.183Z,1.58
2023-10-31T12:49:37.763Z,3.67
2023-10-31T12:52:23.323Z,2.72
2023-10-31T12:55:22.826Z,2.03
2023-10-31T12:58:12.532Z,1.95
2023-10-31T13:00:58.394Z,4.63
2023-10-31T13:03:51.095Z,1.92
2023-10-31T13:06:37.044Z,2.88
2023-10-31T13:09:22.477Z,6.60
2023-10-31T13:12:09.920Z,2.78
2023-10-31T13:14:56.650Z,2.78
2023-10-31T13:17:44.135Z,1.30
2023-10-31T13:20:30.083Z,1.63
2023-10-31T13:23:15.621Z,3.83
2023-10-31T13:26:02.433Z,2.10
2023-10-31T13:28:48.239Z,1.17
2023-10-31T13:31:33.663Z,1.80
2023-10-31T13:34:19.181Z,2.67
2023-10-31T13:37:05.169Z,2.15
2023-10-31T13:39:50.762Z,1.73
2023-10-31T13:42:37.340Z,1.92
2023-10-31T13:45:22.888Z,2.42
2023-10-31T13:48:08.800Z,2.83
2023-10-31T13:50:54.628Z,2.58
2023-10-31T13:53:40.250Z,1.50
2023-10-31T13:56:25.889Z,2.17
2023-10-31T13:59:11.310Z,2.08
2023-10-31T14:01:56.969Z,1.70
2023-10-31T14:04:43.062Z,2.28
2023-10-31T14:07:28.965Z,3.10
2023-10-31T14:10:14.551Z,1.05
2023-10-31T14:13:00.677Z,2.33
2023-10-31T14:15:46.569Z,3.95
2023-10-31T14:18:32.214Z,3.97
2023-10-31T14:21:17.601Z,4.43
2023-10-31T14:24:10.659Z,5.10
2023-10-31T14:26:58.330Z,4.50
2023-10-31T14:29:43.946Z,4.50
2023-10-31T14:32:29.499Z,3.85
2023-10-31T14:35:15.159Z,1.95
2023-10-31T14:38:01.124Z,4.20
2023-10-31T14:40:51.492Z,2.28
2023-10-31T14:43:37.530Z,2.55
2023-10-31T14:46:23.449Z,1.50
2023-10-31T14:49:09.268Z,1.63
2023-10-31T14:51:54.790Z,4.05
2023-10-31T14:54:40.270Z,3.83
2023-10-31T14:57:25.851Z,2.35
2023-10-31T15:00:12.317Z,1.75
2023-10-31T15:02:58.475Z,1.55
2023-10-31T15:05:44.457Z,3.33
2023-10-31T15:08:32.409Z,2.90
2023-10-31T15:11:18.183Z,2.45
2023-10-31T15:14:05.120Z,3.83
2023-10-31T15:16:50.539Z,2.42
2023-10-31T15:19:36.568Z,4.85
2023-10-31T15:22:22.477Z,2.97
2023-10-31T15:25:10.111Z,3.17
2023-10-31T15:27:55.972Z,1.83
2023-10-31T15:30:41.641Z,3.50
2023-10-31T15:33:27.384Z,3.20
2023-10-31T15:36:13.904Z,2.83
2023-10-31T15:38:59.425Z,1.73
2023-10-31T15:41:44.990Z,3.83
2023-10-31T15:44:30.780Z,1.63
2023-10-31T15:47:17.232Z,2.55
2023-10-31T15:50:03.152Z,5.70
2023-10-31T15:52:54.875Z,2.22
2023-10-31T15:55:40.370Z,5.20
2023-10-31T15:58:25.794Z,6.82
2023-10-31T16:01:11.330Z,3.08
2023-10-31T16:03:56.919Z,4.40
2023-10-31T16:06:43.079Z,3.92
2023-10-31T16:09:28.543Z,4.68
2023-10-31T16:12:14.087Z,7.15
2023-10-31T16:15:00.224Z,7.45
2023-10-31T16:17:45.761Z,4.90
2023-10-31T16:20:31.712Z,8.55
2023-10-31T16:23:17.366Z,6.85
2023-10-31T16:26:02.885Z,7.38
2023-10-31T16:28:50.034Z,7.55
2023-10-31T16:31:35.582Z,4.80
2023-10-31T16:34:21.567Z,2.90
2023-10-31T16:37:07.202Z,4.80
2023-10-31T16:39:52.653Z,4.20
2023-10-31T16:42:38.844Z,4.78
2023-10-31T16:45:24.912Z,3.75
2023-10-31T16:48:10.824Z,3.53
2023-10-31T16:50:56.282Z,3.20
2023-10-31T16:53:41.850Z,5.47
2023-10-31T16:56:27.411Z,18.48
2023-10-31T16:59:12.973Z,9.68
2023-10-31T17:01:58.363Z,10.48
2023-10-31T17:04:43.831Z,5.15
2023-10-31T17:07:29.442Z,6.45
2023-10-31T17:10:15.018Z,5.70
2023-10-31T17:13:00.560Z,7.47
2023-10-31T17:15:46.956Z,4.82
2023-10-31T17:18:32.919Z,7.57
2023-10-31T17:21:18.888Z,5.85
2023-10-31T17:24:06.245Z,4.53
2023-10-31T17:26:51.800Z,3.45
2023-10-31T17:29:37.310Z,5.93
2023-10-31T17:32:23.594Z,3.05
2023-10-31T17:35:09.707Z,4.38
2023-10-31T17:37:54.996Z,3.70
2023-10-31T17:40:40.625Z,15.73
2023-10-31T17:43:26.105Z,8.85
2023-10-31T17:46:11.634Z,114.90
2023-10-31T17:48:57.143Z,507.48
2023-10-31T17:51:45.780Z,321.63
2023-10-31T17:54:31.751Z,232.65
2023-10-31T17:57:17.376Z,355.67
2023-10-31T18:00:06.049Z,363.52
2023-10-31T18:02:52.127Z,481.55
2023-10-31T18:05:38.412Z,363.00
2023-10-31T18:08:24.258Z,325.75
2023-10-31T18:11:09.744Z,199.80
2023-10-31T18:13:55.073Z,167.90
2023-10-31T18:16:41.254Z,132.20
2023-10-31T18:19:26.905Z,103.72
2023-10-31T18:22:12.573Z,80.35
2023-10-31T18:24:58.471Z,63.65
2023-10-31T18:27:44.080Z,51.00
2023-10-31T18:30:29.832Z,53.28
2023-10-31T18:33:15.615Z,42.70
2023-10-31T18:36:01.450Z,29.77
2023-10-31T18:38:47.233Z,25.90
2023-10-31T18:41:32.842Z,19.55
2023-10-31T18:44:28.148Z,17.05
2023-10-31T18:47:22.214Z,15.00
2023-10-31T18:50:08.380Z,11.98
2023-10-31T18:52:53.813Z,11.55
2023-10-31T18:55:40.036Z,8.52
2023-10-31T18:58:25.435Z,7.53
2023-10-31T19:01:11.029Z,10.40
2023-10-31T19:03:57.062Z,6.68
2023-10-31T19:06:42.841Z,6.13
2023-10-31T19:09:28.344Z,12.40
2023-10-31T19:12:13.930Z,8.40
2023-10-31T19:14:59.635Z,8.73
2023-10-31T19:17:45.766Z,7.88
2023-10-31T19:20:31.927Z,5.68
2023-10-31T19:23:17.553Z,3.05
2023-10-31T19:26:03.098Z,4.43
2023-10-31T19:28:48.830Z,3.22
2023-10-31T19:31:34.728Z,5.15
2023-10-31T19:34:20.520Z,8.32
2023-10-31T19:37:05.949Z,3.67
2023-10-31T19:39:51.582Z,5.95
2023-10-31T19:42:37.108Z,9.65
2023-10-31T19:45:22.564Z,3.42
2023-10-31T19:48:08.238Z,3.30
2023-10-31T19:50:54.165Z,4.72
2023-10-31T19:53:39.898Z,4.93
2023-10-31T19:56:25.692Z,4.15
2023-10-31T19:59:11.354Z,3.45
2023-10-31T20:01:57.873Z,1.90
2023-10-31T20:04:43.453Z,6.55
2023-10-31T20:07:28.987Z,5.53
2023-10-31T20:10:14.385Z,7.68
2023-10-31T20:12:59.983Z,4.75
2023-10-31T20:15:45.459Z,2.85
2023-10-31T20:18:31.693Z,4.47
2023-10-31T20:21:20.695Z,6.15
2023-10-31T20:24:07.061Z,5.63
2023-10-31T20:26:52.858Z,3.15
2023-10-31T20:29:38.832Z,3.30
2023-10-31T20:32:24.630Z,3.85
2023-10-31T20:35:10.384Z,6.45
2023-10-31T20:37:56.276Z,6.38
2023-10-31T20:40:41.927Z,3.72
2023-10-31T20:43:27.971Z,5.88
2023-10-31T20:46:13.897Z,2.55
2023-10-31T20:48:59.901Z,3.25
2023-10-31T20:51:45.370Z,4.47
2023-10-31T20:54:30.835Z,3.03
2023-10-31T20:57:16.368Z,1.73
2023-10-31T21:00:01.837Z,17.13
2023-10-31T21:02:47.347Z,3.25
2023-10-31T21:05:37.102Z,4.45
2023-10-31T21:08:22.804Z,8.98
2023-10-31T21:11:08.459Z,3.53
2023-10-31T21:13:54.195Z,6.68
2023-10-31T21:16:39.885Z,5.80
2023-10-31T21:19:31.262Z,4.55
2023-10-31T21:22:21.754Z,3.70
2023-10-31T21:25:08.388Z,4.53
2023-10-31T21:27:53.780Z,4.43
2023-10-31T21:30:39.457Z,6.07
2023-10-31T21:33:25.250Z,3.90
2023-10-31T21:36:12.175Z,4.00
2023-10-31T21:38:57.869Z,2.50
2023-10-31T21:41:48.090Z,5.82
2023-10-31T21:44:33.722Z,5.22
2023-10-31T21:47:19.816Z,4.28
2023-10-31T21:50:07.240Z,2.33
2023-10-31T21:52:52.673Z,6.82
2023-10-31T21:55:38.103Z,5.90
2023-10-31T21:58:23.494Z,4.05
2023-10-31T22:01:09.427Z,3.60
2023-10-31T22:03:55.178Z,3.13
2023-10-31T22:06:40.930Z,4.97
2023-10-31T22:09:27.064Z,4.43
2023-10-31T22:12:12.689Z,9.10
2023-10-31T22:14:58.332Z,6.45
2023-10-31T22:17:44.000Z,6.20
2023-10-31T22:20:30.223Z,3.23
2023-10-31T22:23:16.045Z,2.33
2023-10-31T22:26:01.655Z,3.47
2023-10-31T22:28:47.799Z,4.25
2023-10-31T22:31:33.567Z,5.20
2023-10-31T22:34:19.052Z,4.82
2023-10-31T22:37:04.725Z,3.35
2023-10-31T22:39:50.202Z,6.13
2023-10-31T22:42:35.866Z,2.97
2023-10-31T22:45:22.067Z,3.20
2023-10-31T22:48:07.833Z,4.60
2023-10-31T22:50:53.571Z,2.25
2023-10-31T22:53:39.003Z,2.60
2023-10-31T22:56:24.320Z,10.00
2023-10-31T22:59:10.047Z,7.45
2023-10-31T23:01:55.482Z,1.67
2023-10-31T23:04:41.091Z,3.92
2023-10-31T23:07:26.603Z,4.60
2023-10-31T23:10:12.716Z,2.70
2023-10-31T23:12:58.258Z,3.40
2023-10-31T23:15:43.785Z,4.47
2023-10-31T23:18:29.388Z,7.47
2023-10-31T23:21:15.438Z,5.60
2023-10-31T23:24:00.917Z,9.70
2023-10-31T23:26:46.424Z,7.88
2023-10-31T23:29:32.208Z,5.45
2023-10-31T23:32:18.321Z,5.82
2023-10-31T23:35:04.657Z,3.58
2023-10-31T23:37:50.069Z,5.50
2023-10-31T23:40:35.673Z,4.55
2023-10-31T23:43:21.159Z,3.05
2023-10-31T23:46:06.756Z,4.18
2023-10-31T23:48:52.303Z,2.53
2023-10-31T23:51:37.733Z,2.83
2023-10-31T23:54:23.392Z,3.53
2023-10-31T23:57:08.987Z,2.72
2023-10-31T23:59:54.386Z,2.40
